Time;durP1;ratioP1;P1;durP2;ratioP2;P2;SDS_P1;SDS_P2;PMS_P1;PMS_P2;Temp;Humidity;BMP_temperature;BMP_pressure;BME280_temperature;BME280_humidity;BME280_pressure;Samples;Min_cycle;Max_cycle;Signal;HPM_P1;HPM_P2
2023/01/17 00:00:55;;;;;;;3.38;1.52;;;;;;;;;;5051278;28;20705;-64
2023/01/17 00:03:26;;;;;;;4.00;1.95;;;;;;;;;;5034996;28;20056;-63
2023/01/17 00:11:34;;;;;;;3.13;1.70;;;;;;;;;;5088727;28;20063;-63
2023/01/17 00:14:03;;;;;;;6.30;1.65;;;;;;;;;;5090666;28;20480;-63
2023/01/17 00:16:33;;;;;;;6.65;1.70;;;;;;;;;;5089429;28;20440;-63
2023/01/17 01:35:32;;;;;;;4.57;2.22;;;;;;;;;;5070669;28;20405;-62
2023/01/17 01:38:03;;;;;;;4.43;2.15;;;;;;;;;;5020511;28;20056;-63
2023/01/17 01:40:32;;;;;;;12.15;2.60;;;;;;;;;;5070559;28;20052;-62
2023/01/17 01:43:04;;;;;;;10.30;2.63;;;;;;;;;;5037074;28;20053;-62
2023/01/17 01:45:35;;;;;;;6.07;2.80;;;;;;;;;;5037200;28;20555;-62
2023/01/17 01:48:05;;;;;;;10.00;2.30;;;;;;;;;;5070600;28;20044;-62
2023/01/17 01:50:36;;;;;;;9.10;2.40;;;;;;;;;;5070551;28;20058;-62
2023/01/17 01:53:07;;;;;;;5.85;2.35;;;;;;;;;;5090858;28;20118;-62
2023/01/17 01:55:41;;;;;;;5.15;2.38;;;;;;;;;;5113467;28;20044;-63
2023/01/17 01:58:21;;;;;;;7.03;2.70;;;;;;;;;;5077371;28;20058;-63
2023/01/17 02:00:51;;;;;;;7.15;2.72;;;;;;;;;;5113319;28;20517;-62
2023/01/17 02:03:28;;;;;;;6.22;2.47;;;;;;;;;;5113488;28;20043;-63
2023/01/17 02:06:11;;;;;;;8.27;2.58;;;;;;;;;;5113483;28;20047;-62
2023/01/17 02:08:42;;;;;;;5.15;2.50;;;;;;;;;;5113132;28;20043;-63
2023/01/17 02:11:13;;;;;;;5.30;2.03;;;;;;;;;;5060841;28;20056;-62
2023/01/17 02:13:43;;;;;;;9.30;2.35;;;;;;;;;;5069748;28;20057;-63
2023/01/17 02:16:46;;;;;;;6.45;2.20;;;;;;;;;;5069990;28;20203;-63
2023/01/17 02:19:54;;;;;;;8.65;2.50;;;;;;;;;;5069706;28;20053;-63
2023/01/17 02:22:59;;;;;;;4.28;2.20;;;;;;;;;;5020666;28;20049;-62
2023/01/17 02:26:01;;;;;;;8.63;2.58;;;;;;;;;;5069520;28;20048;-64
2023/01/17 02:29:09;;;;;;;10.75;2.42;;;;;;;;;;5069210;28;20059;-63
2023/01/17 02:32:00;;;;;;;4.18;2.30;;;;;;;;;;4970769;28;20059;-63
2023/01/17 02:34:32;;;;;;;8.25;2.90;;;;;;;;;;4971015;28;20546;-63
2023/01/17 02:37:33;;;;;;;8.60;2.70;;;;;;;;;;4970809;28;20062;-63
2023/01/17 02:40:16;;;;;;;5.80;2.17;;;;;;;;;;4951247;28;20090;-63
2023/01/17 02:42:55;;;;;;;6.32;2.30;;;;;;;;;;4951244;28;20070;-62
2023/01/17 02:45:25;;;;;;;6.72;2.75;;;;;;;;;;4965339;28;20062;-63
2023/01/17 02:47:55;;;;;;;9.82;2.85;;;;;;;;;;4970679;28;20047;-64
2023/01/17 02:50:40;;;;;;;7.03;2.35;;;;;;;;;;4970482;28;20067;-63
2023/01/17 02:53:47;;;;;;;7.88;2.42;;;;;;;;;;4938555;28;20063;-63
2023/01/17 02:56:35;;;;;;;6.43;2.15;;;;;;;;;;4950678;28;20055;-63
2023/01/17 02:59:20;;;;;;;6.82;2.97;;;;;;;;;;4951082;28;20062;-63
2023/01/17 03:02:09;;;;;;;5.80;2.22;;;;;;;;;;4909266;28;20059;-63
2023/01/17 03:04:55;;;;;;;8.27;2.20;;;;;;;;;;5009304;28;20053;-63
2023/01/17 03:07:27;;;;;;;5.18;2.40;;;;;;;;;;4995210;28;20049;-62
2023/01/17 03:09:58;;;;;;;;;;;;;;;;;;5028954;28;20054;-63
2023/01/17 03:12:32;;;;;;;7.32;2.50;;;;;;;;;;4980136;28;19921;-63
2023/01/17 03:15:02;;;;;;;4.03;2.30;;;;;;;;;;5029191;28;20054;-63
2023/01/17 03:17:33;;;;;;;5.70;2.40;;;;;;;;;;5036682;28;20677;-63
2023/01/17 03:20:03;;;;;;;5.72;2.50;;;;;;;;;;5088984;28;20610;-63
2023/01/17 03:22:32;;;;;;;6.82;3.05;;;;;;;;;;5072062;28;20059;-63
2023/01/17 03:25:04;;;;;;;7.35;2.20;;;;;;;;;;5089102;28;20040;-63
2023/01/17 03:27:35;;;;;;;6.97;2.33;;;;;;;;;;5055551;28;20056;-63
2023/01/17 03:30:06;;;;;;;4.47;2.47;;;;;;;;;;5088448;28;20063;-63
2023/01/17 03:32:36;;;;;;;4.13;2.10;;;;;;;;;;5088646;28;20052;-64
2023/01/17 03:35:06;;;;;;;7.45;2.50;;;;;;;;;;5059758;28;20086;-63
2023/01/17 03:37:36;;;;;;;4.90;2.15;;;;;;;;;;5075483;28;20506;-63
2023/01/17 03:40:07;;;;;;;7.63;3.17;;;;;;;;;;5075514;28;20059;-63
2023/01/17 03:42:38;;;;;;;6.97;2.30;;;;;;;;;;5076386;28;20059;-63
2023/01/17 03:45:09;;;;;;;4.55;2.22;;;;;;;;;;5075256;28;20054;-63
2023/01/17 03:47:39;;;;;;;7.97;2.22;;;;;;;;;;5111527;28;20043;-63
2023/01/17 03:50:11;;;;;;;7.32;2.13;;;;;;;;;;5111478;28;20040;-63
2023/01/17 03:52:41;;;;;;;7.32;2.22;;;;;;;;;;5111151;28;20050;-63
2023/01/17 03:55:11;;;;;;;7.43;2.53;;;;;;;;;;5110824;28;20403;-63
2023/01/17 03:57:41;;;;;;;5.30;2.00;;;;;;;;;;5076503;28;20052;-63
2023/01/17 04:00:12;;;;;;;4.68;2.17;;;;;;;;;;5111686;28;20048;-63
2023/01/17 04:02:42;;;;;;;6.10;2.53;;;;;;;;;;5091893;28;20051;-63
2023/01/17 04:05:12;;;;;;;9.02;2.10;;;;;;;;;;5019606;28;20052;-63
2023/01/17 04:07:42;;;;;;;5.90;2.13;;;;;;;;;;5068500;28;20440;-63
2023/01/17 04:10:12;;;;;;;5.47;2.05;;;;;;;;;;5067820;28;20056;-63
2023/01/17 04:12:41;;;;;;;5.55;2.38;;;;;;;;;;5068047;28;20152;-63
2023/01/17 04:15:12;;;;;;;9.18;2.33;;;;;;;;;;5018206;28;20061;-63
2023/01/17 04:17:42;;;;;;;8.77;2.63;;;;;;;;;;5068187;28;20555;-64
2023/01/17 04:20:26;;;;;;;6.18;2.20;;;;;;;;;;5067827;28;20048;-63
2023/01/17 04:22:56;;;;;;;4.30;2.00;;;;;;;;;;5019640;28;20048;-63
2023/01/17 04:25:28;;;;;;;5.18;2.03;;;;;;;;;;5034661;28;20543;-63
2023/01/17 04:28:00;;;;;;;5.20;2.20;;;;;;;;;;5034673;28;20057;-63
2023/01/17 04:30:31;;;;;;;5.30;2.13;;;;;;;;;;5067681;28;20548;-63
2023/01/17 04:33:02;;;;;;;7.30;2.30;;;;;;;;;;5034431;28;20048;-63
2023/01/17 04:35:32;;;;;;;7.35;2.50;;;;;;;;;;5068124;28;20381;-63
2023/01/17 04:38:03;;;;;;;7.63;2.35;;;;;;;;;;5068127;28;20049;-63
2023/01/17 04:40:33;;;;;;;4.22;2.17;;;;;;;;;;5067828;28;20116;-63
2023/01/17 04:43:03;;;;;;;10.65;2.25;;;;;;;;;;5051857;28;20048;-64
2023/01/17 04:45:33;;;;;;;4.72;2.30;;;;;;;;;;5050711;28;20075;-63
2023/01/17 04:48:04;;;;;;;7.93;2.40;;;;;;;;;;5035190;28;20079;-64
2023/01/17 04:50:34;;;;;;;6.47;2.47;;;;;;;;;;5051397;28;20164;-63
2023/01/17 04:53:04;;;;;;;6.53;2.40;;;;;;;;;;5050982;28;20053;-63
2023/01/17 04:55:34;;;;;;;5.10;2.50;;;;;;;;;;5018054;28;20051;-63
2023/01/17 04:58:05;;;;;;;5.63;2.08;;;;;;;;;;5017353;28;20049;-63
2023/01/17 05:00:34;;;;;;;5.30;2.35;;;;;;;;;;5067683;28;20053;-63
2023/01/17 05:03:04;;;;;;;4.90;2.40;;;;;;;;;;5034421;28;20064;-63
2023/01/17 05:05:34;;;;;;;5.32;1.92;;;;;;;;;;5067690;28;20057;-63
2023/01/17 05:08:04;;;;;;;8.93;2.50;;;;;;;;;;5070887;28;20555;-63
2023/01/17 05:10:34;;;;;;;12.80;2.30;;;;;;;;;;5071049;28;20103;-63
2023/01/17 05:13:04;;;;;;;6.60;2.33;;;;;;;;;;5071062;28;20048;-63
2023/01/17 05:15:36;;;;;;;6.78;2.25;;;;;;;;;;5070868;28;20048;-64
2023/01/17 05:18:10;;;;;;;10.93;2.20;;;;;;;;;;5021535;28;20700;-63
2023/01/17 05:20:41;;;;;;;5.18;2.53;;;;;;;;;;5058659;28;20062;-64
2023/01/17 05:23:12;;;;;;;6.68;2.20;;;;;;;;;;5113906;28;20051;-63
2023/01/17 05:25:43;;;;;;;5.05;2.22;;;;;;;;;;5078074;28;20058;-64
2023/01/17 05:28:14;;;;;;;11.23;2.63;;;;;;;;;;5114143;28;20040;-63
2023/01/17 05:30:44;;;;;;;9.00;2.22;;;;;;;;;;5113415;28;20043;-64
2023/01/17 05:33:14;;;;;;;5.35;2.30;;;;;;;;;;5113782;28;20047;-64
2023/01/17 05:35:44;;;;;;;8.98;2.13;;;;;;;;;;5090443;28;20476;-63
2023/01/17 05:38:15;;;;;;;5.88;2.15;;;;;;;;;;5090897;28;20059;-63
2023/01/17 05:40:46;;;;;;;6.30;2.58;;;;;;;;;;5041217;28;20434;-64
2023/01/17 05:43:16;;;;;;;6.38;2.22;;;;;;;;;;5091041;28;20047;-64
2023/01/17 05:45:48;;;;;;;4.85;2.58;;;;;;;;;;5057691;28;20067;-63
2023/01/17 05:48:19;;;;;;;10.52;2.20;;;;;;;;;;5090516;28;20064;-64
2023/01/17 05:50:51;;;;;;;8.15;2.25;;;;;;;;;;5090493;28;20079;-64
2023/01/17 05:53:21;;;;;;;5.35;2.40;;;;;;;;;;5090730;28;20059;-64
2023/01/17 05:55:51;;;;;;;6.07;2.03;;;;;;;;;;5090625;28;20047;-63
2023/01/17 05:58:22;;;;;;;7.97;2.20;;;;;;;;;;5090478;28;20052;-64
2023/01/17 06:00:54;;;;;;;7.22;2.70;;;;;;;;;;5090580;28;20396;-64
2023/01/17 06:03:25;;;;;;;11.93;1.95;;;;;;;;;;5040251;28;20051;-63
2023/01/17 06:05:55;;;;;;;3.92;2.00;;;;;;;;;;5090050;28;20408;-64
2023/01/17 06:08:25;;;;;;;6.32;2.05;;;;;;;;;;5024764;28;20559;-64
2023/01/17 06:10:57;;;;;;;6.13;2.03;;;;;;;;;;5090240;28;20499;-64
2023/01/17 06:13:28;;;;;;;4.53;1.80;;;;;;;;;;5102404;28;20052;-63
2023/01/17 06:16:02;;;;;;;5.95;1.90;;;;;;;;;;5094145;28;20051;-63
2023/01/17 06:18:33;;;;;;;4.57;2.00;;;;;;;;;;5077355;28;20518;-63
2023/01/17 06:21:03;;;;;;;6.13;1.90;;;;;;;;;;5089696;28;20077;-63
2023/01/17 06:23:33;;;;;;;6.95;2.63;;;;;;;;;;5089770;28;20088;-64
2023/01/17 06:26:04;;;;;;;7.15;2.05;;;;;;;;;;5089645;28;20063;-64
2023/01/17 06:28:34;;;;;;;10.82;2.13;;;;;;;;;;5040899;28;20059;-64
2023/01/17 06:31:08;;;;;;;4.82;1.80;;;;;;;;;;5039500;28;20118;-63
2023/01/17 06:33:39;;;;;;;5.82;1.92;;;;;;;;;;5049318;28;20061;-63
2023/01/17 06:36:09;;;;;;;4.80;2.05;;;;;;;;;;5049447;28;20243;-63
2023/01/17 06:38:39;;;;;;;4.47;1.92;;;;;;;;;;5032823;28;20439;-64
2023/01/17 06:41:09;;;;;;;4.10;2.03;;;;;;;;;;5049155;28;20049;-64
2023/01/17 06:43:39;;;;;;;13.43;2.10;;;;;;;;;;4999613;28;20059;-64
2023/01/17 06:46:09;;;;;;;9.60;2.25;;;;;;;;;;5049551;28;20065;-63
2023/01/17 06:48:42;;;;;;;5.65;2.45;;;;;;;;;;5049288;28;20044;-63
2023/01/17 06:51:12;;;;;;;7.97;2.67;;;;;;;;;;5049169;28;20061;-64
2023/01/17 06:53:42;;;;;;;6.68;2.45;;;;;;;;;;5016239;28;20744;-64
2023/01/17 06:56:12;;;;;;;7.60;2.22;;;;;;;;;;5049282;28;20177;-64
2023/01/17 06:58:42;;;;;;;11.38;2.40;;;;;;;;;;5059142;28;20060;-64
2023/01/17 07:01:12;;;;;;;5.32;2.17;;;;;;;;;;5069019;28;20056;-64
2023/01/17 07:03:42;;;;;;;5.88;2.22;;;;;;;;;;5052429;28;20896;-63
2023/01/17 07:06:14;;;;;;;6.47;1.88;;;;;;;;;;5052147;28;20060;-64
2023/01/17 07:08:44;;;;;;;6.43;3.35;;;;;;;;;;5068928;28;20403;-64
2023/01/17 07:11:14;;;;;;;8.65;2.20;;;;;;;;;;5028020;28;20053;-63
2023/01/17 07:13:43;;;;;;;3.22;1.70;;;;;;;;;;5000751;28;20053;-64
2023/01/17 07:16:14;;;;;;;14.90;2.40;;;;;;;;;;5015630;28;20087;-64
2023/01/17 07:18:44;;;;;;;9.23;2.00;;;;;;;;;;4992373;28;20445;-63
2023/01/17 07:21:14;;;;;;;6.90;1.80;;;;;;;;;;5009225;28;20062;-63
2023/01/17 07:23:44;;;;;;;10.75;1.70;;;;;;;;;;5008605;28;20052;-63
2023/01/17 07:26:16;;;;;;;8.07;2.13;;;;;;;;;;5009384;28;20532;-64
2023/01/17 07:28:46;;;;;;;6.68;2.20;;;;;;;;;;5004394;28;20438;-64
2023/01/17 07:31:16;;;;;;;6.20;1.90;;;;;;;;;;4973193;28;20077;-63
2023/01/17 07:33:46;;;;;;;8.60;2.47;;;;;;;;;;4969584;28;20065;-64
2023/01/17 07:36:16;;;;;;;5.35;1.63;;;;;;;;;;4970098;28;20055;-63
2023/01/17 07:38:46;;;;;;;5.80;2.17;;;;;;;;;;4969845;28;20050;-64
2023/01/17 07:41:16;;;;;;;7.80;2.25;;;;;;;;;;4969584;28;20055;-64
2023/01/17 07:43:46;;;;;;;8.50;2.60;;;;;;;;;;4969754;28;20400;-64
2023/01/17 07:46:17;;;;;;;9.35;2.20;;;;;;;;;;4969492;28;20063;-64
2023/01/17 07:48:47;;;;;;;6.63;1.80;;;;;;;;;;4986887;28;20541;-64
2023/01/17 07:51:16;;;;;;;7.63;1.83;;;;;;;;;;5009016;28;20061;-63
2023/01/17 07:53:46;;;;;;;7.65;1.90;;;;;;;;;;4975994;28;20065;-63
2023/01/17 07:56:18;;;;;;;4.28;1.90;;;;;;;;;;5018350;28;20076;-64
2023/01/17 07:58:47;;;;;;;7.22;2.10;;;;;;;;;;5011982;28;20050;-64
2023/01/17 08:01:17;;;;;;;4.47;2.22;;;;;;;;;;4988473;28;20060;-63
2023/01/17 08:03:52;;;;;;;5.72;2.60;;;;;;;;;;5014821;28;20072;-63
2023/01/17 08:06:25;;;;;;;10.15;2.13;;;;;;;;;;5048053;28;20060;-63
2023/01/17 08:08:57;;;;;;;8.38;2.30;;;;;;;;;;5016182;28;20053;-64
2023/01/17 08:11:27;;;;;;;4.50;1.95;;;;;;;;;;5033463;28;20810;-63
2023/01/17 08:13:58;;;;;;;6.63;2.00;;;;;;;;;;5034982;28;20064;-63
2023/01/17 08:16:28;;;;;;;6.50;2.15;;;;;;;;;;5048032;28;20452;-63
2023/01/17 08:18:58;;;;;;;5.82;2.80;;;;;;;;;;5014822;28;20057;-63
2023/01/17 08:21:28;;;;;;;6.97;1.85;;;;;;;;;;5014970;28;20493;-63
2023/01/17 08:23:58;;;;;;;9.48;2.83;;;;;;;;;;5047913;28;20144;-63
2023/01/17 08:26:28;;;;;;;7.35;2.60;;;;;;;;;;5048170;28;20492;-63
2023/01/17 08:28:59;;;;;;;7.28;2.05;;;;;;;;;;5053159;28;20060;-63
2023/01/17 08:31:32;;;;;;;6.45;2.00;;;;;;;;;;5034887;28;20053;-64
2023/01/17 08:34:03;;;;;;;8.00;2.13;;;;;;;;;;5018016;28;20067;-63
2023/01/17 08:36:33;;;;;;;7.90;2.20;;;;;;;;;;5067967;28;20056;-63
2023/01/17 08:39:03;;;;;;;11.05;2.42;;;;;;;;;;5067608;28;20052;-63
2023/01/17 08:41:33;;;;;;;5.13;2.05;;;;;;;;;;5070010;28;20064;-64
2023/01/17 08:44:03;;;;;;;10.85;2.60;;;;;;;;;;5038754;28;20052;-64
2023/01/17 08:46:33;;;;;;;5.50;1.90;;;;;;;;;;5071617;28;20048;-63
2023/01/17 08:49:03;;;;;;;8.60;2.00;;;;;;;;;;5038568;28;20053;-63
2023/01/17 08:51:33;;;;;;;7.40;2.13;;;;;;;;;;5071780;28;20523;-63
2023/01/17 08:54:03;;;;;;;4.55;1.70;;;;;;;;;;5082177;28;20067;-63
2023/01/17 08:56:34;;;;;;;8.85;1.90;;;;;;;;;;5025892;28;20055;-63
2023/01/17 08:59:04;;;;;;;9.30;2.10;;;;;;;;;;5094027;28;20043;-63
2023/01/17 09:01:39;;;;;;;4.28;2.03;;;;;;;;;;5094240;28;20052;-64
2023/01/17 09:04:13;;;;;;;9.18;2.15;;;;;;;;;;5093731;28;20047;-63
2023/01/17 09:06:46;;;;;;;12.95;2.25;;;;;;;;;;5093817;28;20039;-64
2023/01/17 09:09:17;;;;;;;6.50;3.03;;;;;;;;;;5074960;28;20486;-64
2023/01/17 09:11:47;;;;;;;5.28;2.28;;;;;;;;;;5093982;28;20054;-63
2023/01/17 09:14:17;;;;;;;5.15;2.55;;;;;;;;;;5093758;28;20361;-63
2023/01/17 09:16:47;;;;;;;5.82;2.40;;;;;;;;;;5093948;28;20048;-63
2023/01/17 09:19:17;;;;;;;5.90;2.20;;;;;;;;;;5093837;28;20395;-64
2023/01/17 09:21:47;;;;;;;5.47;2.35;;;;;;;;;;5093868;28;20070;-63
2023/01/17 09:24:17;;;;;;;5.97;2.13;;;;;;;;;;5058512;28;20063;-64
2023/01/17 09:26:47;;;;;;;5.65;1.98;;;;;;;;;;5093616;28;20044;-64
2023/01/17 09:29:17;;;;;;;7.45;2.22;;;;;;;;;;5101978;28;20052;-64
2023/01/17 09:31:47;;;;;;;4.35;1.50;;;;;;;;;;5113672;28;20048;-64
2023/01/17 09:34:17;;;;;;;10.55;2.20;;;;;;;;;;5113598;28;20035;-64
2023/01/17 09:36:50;;;;;;;6.20;1.80;;;;;;;;;;5113905;28;20047;-64
2023/01/17 09:39:20;;;;;;;4.20;1.80;;;;;;;;;;5043809;28;20051;-64
2023/01/17 09:42:12;;;;;;;8.85;2.00;;;;;;;;;;5077710;28;20055;-63
2023/01/17 09:44:46;;;;;;;12.05;2.17;;;;;;;;;;5113498;28;20051;-63
2023/01/17 09:47:44;;;;;;;3.60;2.03;;;;;;;;;;5113546;28;20391;-64
2023/01/17 09:50:25;;;;;;;9.05;2.38;;;;;;;;;;5113420;28;20039;-63
2023/01/17 09:53:06;;;;;;;5.03;2.20;;;;;;;;;;5112404;28;20047;-63
2023/01/17 09:56:16;;;;;;;5.53;2.13;;;;;;;;;;5113504;28;20388;-63
2023/01/17 09:59:07;;;;;;;6.90;1.92;;;;;;;;;;5077311;28;20048;-63
2023/01/17 10:01:55;;;;;;;4.07;1.80;;;;;;;;;;5077702;28;20491;-63
2023/01/17 10:04:35;;;;;;;5.07;2.10;;;;;;;;;;5113281;28;20051;-63
2023/01/17 10:07:31;;;;;;;6.57;2.20;;;;;;;;;;5094074;28;20062;-63
2023/01/17 10:10:16;;;;;;;6.80;1.95;;;;;;;;;;5113124;28;20047;-64
2023/01/17 10:12:58;;;;;;;5.07;2.53;;;;;;;;;;5060123;28;20415;-64
2023/01/17 10:15:54;;;;;;;10.68;2.25;;;;;;;;;;5077253;28;20507;-64
2023/01/17 10:19:02;;;;;;;5.43;2.08;;;;;;;;;;5026342;28;20045;-63
2023/01/17 10:21:53;;;;;;;7.32;2.40;;;;;;;;;;4935652;29;20181;-64
2023/01/17 10:24:50;;;;;;;5.07;2.30;;;;;;;;;;4929018;29;20421;-64
2023/01/17 10:27:37;;;;;;;5.00;2.33;;;;;;;;;;4913494;29;20067;-64
2023/01/17 10:30:34;;;;;;;6.80;1.90;;;;;;;;;;4913337;29;20060;-64
2023/01/17 10:33:26;;;;;;;4.97;1.90;;;;;;;;;;4912998;29;20087;-64
2023/01/17 10:36:09;;;;;;;4.90;1.77;;;;;;;;;;4913811;29;20071;-64
2023/01/17 10:38:46;;;;;;;3.47;2.05;;;;;;;;;;4913146;29;21332;-64
2023/01/17 10:41:24;;;;;;;4.78;1.73;;;;;;;;;;4913354;29;20528;-64
2023/01/17 10:44:15;;;;;;;9.18;1.80;;;;;;;;;;4912707;29;20504;-64
2023/01/17 10:46:59;;;;;;;3.00;1.17;;;;;;;;;;4913223;29;20071;-64
2023/01/17 10:49:30;;;;;;;6.75;1.35;;;;;;;;;;4912990;29;20513;-64
2023/01/17 10:52:19;;;;;;;5.38;1.33;;;;;;;;;;4912822;29;20064;-64
2023/01/17 10:55:15;;;;;;;3.35;0.88;;;;;;;;;;4923942;28;20084;-64
2023/01/17 10:57:48;;;;;;;2.83;1.20;;;;;;;;;;4940622;28;20596;-64
2023/01/17 11:00:42;;;;;;;1.50;0.85;;;;;;;;;;4989427;28;20043;-64
2023/01/17 11:03:16;;;;;;;2.30;0.85;;;;;;;;;;5029076;28;20057;-64
2023/01/17 11:06:16;;;;;;;2.17;1.10;;;;;;;;;;5029091;28;20053;-64
2023/01/17 11:09:02;;;;;;;1.67;0.80;;;;;;;;;;5028611;28;20053;-64
2023/01/17 11:11:36;;;;;;;2.47;0.90;;;;;;;;;;5035092;28;20067;-64
2023/01/17 11:14:19;;;;;;;3.22;0.90;;;;;;;;;;5034917;28;20063;-64
2023/01/17 11:17:00;;;;;;;3.50;0.80;;;;;;;;;;5068646;28;20044;-64
2023/01/17 11:19:35;;;;;;;2.22;0.90;;;;;;;;;;5035228;28;20082;-64
2023/01/17 11:22:14;;;;;;;3.42;1.33;;;;;;;;;;5048452;28;20063;-64
2023/01/17 11:25:02;;;;;;;1.70;0.90;;;;;;;;;;5111847;28;20039;-64
2023/01/17 11:27:39;;;;;;;1.88;0.80;;;;;;;;;;5075798;28;20533;-65
2023/01/17 11:30:24;;;;;;;4.05;0.88;;;;;;;;;;5088827;28;20439;-66
2023/01/17 11:33:05;;;;;;;1.45;0.68;;;;;;;;;;5071904;28;20420;-64
2023/01/17 11:35:44;;;;;;;1.60;0.68;;;;;;;;;;5072559;28;20121;-64
2023/01/17 11:38:17;;;;;;;1.45;0.50;;;;;;;;;;5055517;28;20055;-64
2023/01/17 11:40:49;;;;;;;1.88;0.73;;;;;;;;;;5091101;28;20384;-64
2023/01/17 11:43:25;;;;;;;3.30;0.98;;;;;;;;;;5091166;28;20492;-64
2023/01/17 11:46:21;;;;;;;1.10;0.80;;;;;;;;;;5091028;28;20040;-64
2023/01/17 11:48:58;;;;;;;2.45;0.55;;;;;;;;;;5057861;28;20415;-66
2023/01/17 11:51:38;;;;;;;1.10;0.70;;;;;;;;;;5088474;28;20052;-66
2023/01/17 11:54:21;;;;;;;2.20;0.60;;;;;;;;;;5073646;28;20048;-67
2023/01/17 11:56:58;;;;;;;1.50;0.50;;;;;;;;;;5071754;28;20059;-65
2023/01/17 11:59:42;;;;;;;3.88;0.60;;;;;;;;;;5090587;28;20032;-66
2023/01/17 12:02:30;;;;;;;1.00;0.60;;;;;;;;;;5090831;28;20051;-67
2023/01/17 12:05:26;;;;;;;1.58;0.70;;;;;;;;;;5090811;28;20484;-65
2023/01/17 12:08:13;;;;;;;3.35;0.57;;;;;;;;;;5090753;28;20388;-65
2023/01/17 12:11:28;;;;;;;0.80;0.43;;;;;;;;;;5055205;28;20602;-66
2023/01/17 12:14:11;;;;;;;3.90;0.80;;;;;;;;;;5091019;28;20048;-65
2023/01/17 12:16:59;;;;;;;1.10;0.80;;;;;;;;;;5074763;28;20063;-65
2023/01/17 12:20:04;;;;;;;2.22;0.80;;;;;;;;;;5094585;28;20435;-65
2023/01/17 12:22:39;;;;;;;2.80;0.90;;;;;;;;;;5094989;28;20051;-66
2023/01/17 12:25:21;;;;;;;2.03;0.60;;;;;;;;;;5058900;28;20043;-65
2023/01/17 12:28:22;;;;;;;3.50;0.60;;;;;;;;;;5092298;28;20040;-65
2023/01/17 12:31:00;;;;;;;3.45;1.05;;;;;;;;;;5072030;28;20059;-65
2023/01/17 12:33:52;;;;;;;3.08;0.73;;;;;;;;;;5055876;28;20063;-65
2023/01/17 12:36:31;;;;;;;2.17;0.82;;;;;;;;;;5038563;28;20057;-66
2023/01/17 12:39:06;;;;;;;1.10;0.70;;;;;;;;;;5072070;28;20507;-65
2023/01/17 12:42:22;;;;;;;1.23;0.80;;;;;;;;;;5017936;28;20420;-65
2023/01/17 12:45:30;;;;;;;1.92;0.88;;;;;;;;;;5016619;28;20056;-65
2023/01/17 12:48:20;;;;;;;5.35;2.05;;;;;;;;;;4921381;29;20085;-65
2023/01/17 12:51:26;;;;;;;10.60;6.20;;;;;;;;;;4934218;29;20051;-65
2023/01/17 12:53:59;;;;;;;8.73;5.95;;;;;;;;;;4934230;29;20082;-65
2023/01/17 12:56:40;;;;;;;4.82;1.20;;;;;;;;;;4902287;29;20085;-65
2023/01/17 13:00:01;;;;;;;0.82;0.60;;;;;;;;;;4934166;29;20055;-65
2023/01/17 13:02:54;;;;;;;1.75;0.73;;;;;;;;;;4864823;29;20053;-66
2023/01/17 13:05:40;;;;;;;3.95;0.75;;;;;;;;;;4896199;29;20575;-66
2023/01/17 13:08:28;;;;;;;4.25;0.75;;;;;;;;;;4895980;29;20077;-67
2023/01/17 13:11:05;;;;;;;1.85;0.88;;;;;;;;;;4880187;29;20452;-65
2023/01/17 13:13:36;;;;;;;3.10;0.90;;;;;;;;;;4895999;29;20053;-65
2023/01/17 13:16:12;;;;;;;3.05;0.98;;;;;;;;;;4865341;29;20095;-65
2023/01/17 13:18:48;;;;;;;2.72;1.00;;;;;;;;;;4874182;29;20059;-66
2023/01/17 13:21:34;;;;;;;2.35;0.75;;;;;;;;;;4917844;29;20052;-65
2023/01/17 13:24:39;;;;;;;2.22;1.02;;;;;;;;;;4900358;29;20128;-65
2023/01/17 13:27:26;;;;;;;1.23;0.90;;;;;;;;;;4935525;29;20051;-65
2023/01/17 13:30:27;;;;;;;2.72;0.70;;;;;;;;;;4984669;28;20426;-65
2023/01/17 13:33:23;;;;;;;1.30;0.73;;;;;;;;;;4971924;28;20062;-65
2023/01/17 13:36:33;;;;;;;1.95;0.50;;;;;;;;;;4949180;28;20055;-65
2023/01/17 13:39:32;;;;;;;1.55;0.88;;;;;;;;;;4955479;28;20053;-65
2023/01/17 13:42:28;;;;;;;2.17;0.82;;;;;;;;;;4962219;28;20054;-65
2023/01/17 13:45:05;;;;;;;2.22;0.57;;;;;;;;;;4962477;28;20062;-65
2023/01/17 13:47:39;;;;;;;1.38;0.52;;;;;;;;;;5010691;28;20046;-66
2023/01/17 13:50:37;;;;;;;1.10;0.70;;;;;;;;;;5010704;28;20058;-66
2023/01/17 13:53:38;;;;;;;2.00;1.02;;;;;;;;;;4945964;28;20057;-66
2023/01/17 13:56:23;;;;;;;1.80;1.02;;;;;;;;;;4962314;28;20077;-66
2023/01/17 13:59:02;;;;;;;1.08;0.65;;;;;;;;;;5010421;28;21173;-65
2023/01/17 14:01:41;;;;;;;1.60;0.80;;;;;;;;;;5010619;28;20126;-65
2023/01/17 14:04:12;;;;;;;2.40;0.73;;;;;;;;;;5010429;28;20501;-66
2023/01/17 14:06:59;;;;;;;2.03;1.00;;;;;;;;;;5010616;28;20181;-65
2023/01/17 14:09:41;;;;;;;1.63;0.85;;;;;;;;;;5010375;28;20064;-65
2023/01/17 14:12:12;;;;;;;2.67;0.70;;;;;;;;;;5073951;28;20059;-66
2023/01/17 14:14:49;;;;;;;1.10;0.80;;;;;;;;;;5057167;28;20047;-65
2023/01/17 14:17:24;;;;;;;1.83;0.90;;;;;;;;;;5089892;28;20083;-65
2023/01/17 14:20:01;;;;;;;1.40;0.90;;;;;;;;;;5039616;28;20059;-65
2023/01/17 14:22:37;;;;;;;2.95;0.70;;;;;;;;;;5072783;28;20055;-66
2023/01/17 14:25:11;;;;;;;3.65;0.60;;;;;;;;;;5057761;28;20059;-65
2023/01/17 14:28:04;;;;;;;1.85;0.68;;;;;;;;;;5039725;28;20585;-66
2023/01/17 14:30:38;;;;;;;2.20;0.70;;;;;;;;;;5022860;28;20040;-66
2023/01/17 14:33:23;;;;;;;1.33;0.75;;;;;;;;;;5089768;28;20060;-68
2023/01/17 14:36:00;;;;;;;0.60;0.50;;;;;;;;;;5022955;28;20795;-66
2023/01/17 14:38:34;;;;;;;4.72;0.85;;;;;;;;;;5089754;28;20067;-69
2023/01/17 14:41:10;;;;;;;1.02;0.52;;;;;;;;;;5089382;28;20056;-68
2023/01/17 14:43:42;;;;;;;1.58;0.60;;;;;;;;;;5089438;28;20056;-66
2023/01/17 14:46:31;;;;;;;2.25;0.60;;;;;;;;;;5089680;28;20059;-65
2023/01/17 14:49:07;;;;;;;0.55;0.50;;;;;;;;;;5091076;28;20052;-66
2023/01/17 14:51:37;;;;;;;1.88;0.60;;;;;;;;;;5092018;28;20074;-65
2023/01/17 14:54:35;;;;;;;0.60;0.60;;;;;;;;;;5056548;28;20048;-65
2023/01/17 14:57:15;;;;;;;1.15;0.50;;;;;;;;;;5049211;28;20064;-65
2023/01/17 14:59:45;;;;;;;2.78;0.68;;;;;;;;;;4984800;28;20057;-64
2023/01/17 15:02:17;;;;;;;0.93;0.50;;;;;;;;;;5015739;28;20548;-64
2023/01/17 15:04:53;;;;;;;2.13;0.43;;;;;;;;;;5032559;28;20075;-65
2023/01/17 15:07:26;;;;;;;4.18;0.50;;;;;;;;;;5015932;28;20560;-64
2023/01/17 15:09:56;;;;;;;2.45;0.60;;;;;;;;;;5048736;28;20056;-64
2023/01/17 15:12:27;;;;;;;2.60;0.60;;;;;;;;;;5049030;28;20550;-64
2023/01/17 15:14:58;;;;;;;2.17;0.73;;;;;;;;;;4983226;28;20509;-64
2023/01/17 15:17:28;;;;;;;1.73;0.57;;;;;;;;;;5032756;28;20048;-65
2023/01/17 15:20:02;;;;;;;1.15;0.80;;;;;;;;;;4999280;28;20060;-64
2023/01/17 15:22:33;;;;;;;1.42;0.68;;;;;;;;;;5015666;28;20536;-65
2023/01/17 15:25:04;;;;;;;1.55;0.80;;;;;;;;;;5000595;28;20057;-65
2023/01/17 15:27:34;;;;;;;1.15;0.80;;;;;;;;;;5048944;28;20049;-64
2023/01/17 15:30:06;;;;;;;1.10;0.60;;;;;;;;;;5048093;28;20053;-65
2023/01/17 15:32:37;;;;;;;1.40;0.70;;;;;;;;;;5048958;28;20060;-64
2023/01/17 15:35:17;;;;;;;0.60;0.40;;;;;;;;;;5089242;28;20063;-66
2023/01/17 15:37:53;;;;;;;0.80;0.43;;;;;;;;;;5056248;28;20052;-67
2023/01/17 15:40:24;;;;;;;6.55;0.60;;;;;;;;;;5056146;28;20056;-67
2023/01/17 15:42:57;;;;;;;;;;;;;;;;;;5023609;28;20059;-65
2023/01/17 15:45:30;;;;;;;3.00;0.50;;;;;;;;;;5091250;28;20279;-65
2023/01/17 15:48:39;;;;;;;0.65;0.55;;;;;;;;;;5072140;28;20048;-67
2023/01/17 15:51:11;;;;;;;3.58;0.57;;;;;;;;;;5090415;28;20048;-66
2023/01/17 15:53:42;;;;;;;1.70;0.50;;;;;;;;;;5071838;28;20060;-66
2023/01/17 15:56:32;;;;;;;1.40;0.75;;;;;;;;;;5054846;28;20420;-65
2023/01/17 15:59:27;;;;;;;0.68;0.57;;;;;;;;;;5089978;28;20052;-66
2023/01/17 16:01:58;;;;;;;2.60;0.50;;;;;;;;;;5090937;28;20044;-66
2023/01/17 16:04:34;;;;;;;0.95;0.40;;;;;;;;;;5088570;28;20055;-67
2023/01/17 16:07:35;;;;;;;0.75;0.70;;;;;;;;;;5090736;28;20048;-66
2023/01/17 16:10:16;;;;;;;1.33;0.50;;;;;;;;;;4960323;28;20061;-68
2023/01/17 16:12:51;;;;;;;0.88;0.50;;;;;;;;;;5008684;28;20049;-66
2023/01/17 16:15:22;;;;;;;1.73;0.70;;;;;;;;;;5008389;28;20780;-66
2023/01/17 16:17:56;;;;;;;2.10;0.40;;;;;;;;;;4972883;28;20046;-67
2023/01/17 16:20:56;;;;;;;3.78;0.70;;;;;;;;;;4956472;28;20050;-66
2023/01/17 16:23:29;;;;;;;3.22;0.50;;;;;;;;;;4940420;28;20146;-65
2023/01/17 16:25:59;;;;;;;2.95;0.65;;;;;;;;;;4988837;28;20054;-66
2023/01/17 16:28:30;;;;;;;1.52;0.50;;;;;;;;;;4940178;28;20139;-65
2023/01/17 16:31:00;;;;;;;0.88;0.52;;;;;;;;;;4988760;28;20058;-65
2023/01/17 16:33:30;;;;;;;1.88;0.70;;;;;;;;;;4988762;28;20058;-65
2023/01/17 16:36:00;;;;;;;1.88;0.70;;;;;;;;;;4988815;28;20065;-67
2023/01/17 16:38:31;;;;;;;1.05;0.50;;;;;;;;;;4988874;28;20050;-68
2023/01/17 16:41:03;;;;;;;1.35;0.70;;;;;;;;;;4956523;28;20058;-66
2023/01/17 16:43:34;;;;;;;0.85;0.52;;;;;;;;;;4988719;28;20422;-65
2023/01/17 16:46:03;;;;;;;1.77;0.50;;;;;;;;;;4951362;28;20852;-66
2023/01/17 16:48:35;;;;;;;2.80;0.50;;;;;;;;;;5017728;28;20048;-65
2023/01/17 16:51:07;;;;;;;1.98;0.63;;;;;;;;;;5034458;28;20409;-65
2023/01/17 16:53:37;;;;;;;2.72;1.50;;;;;;;;;;5067925;28;20088;-67
2023/01/17 16:56:15;;;;;;;0.47;0.40;;;;;;;;;;5084416;28;20068;-66
2023/01/17 16:58:45;;;;;;;0.80;0.40;;;;;;;;;;5088076;28;20060;-66
2023/01/17 17:01:19;;;;;;;2.53;0.50;;;;;;;;;;5090891;28;20476;-66
2023/01/17 17:03:50;;;;;;;0.98;0.50;;;;;;;;;;5092011;28;20895;-65